createdAt,value
2023-04-04T00:01:44.980Z,4.30
2023-04-04T00:04:48.312Z,4.90
2023-04-04T00:07:51.504Z,5.10
2023-04-04T00:11:01.280Z,4.30
2023-04-04T00:14:05.605Z,4.50
2023-04-04T00:17:08.654Z,4.90
2023-04-04T00:20:12.022Z,4.30
2023-04-04T00:23:15.126Z,4.70
2023-04-04T00:26:18.451Z,4.50
2023-04-04T00:29:21.600Z,4.30
2023-04-04T00:32:24.788Z,4.20
2023-04-04T00:35:28.065Z,4.10
2023-04-04T00:38:31.159Z,4.50
2023-04-04T00:41:35.072Z,3.70
2023-04-04T00:44:38.295Z,4.00
2023-04-04T00:47:43.709Z,4.00
2023-04-04T00:50:47.341Z,4.40
2023-04-04T00:53:51.225Z,5.40
2023-04-04T00:56:55.504Z,5.30
2023-04-04T01:00:02.089Z,4.80
2023-04-04T01:03:07.752Z,5.10
2023-04-04T01:06:11.223Z,5.50
2023-04-04T01:09:14.511Z,4.30
2023-04-04T01:12:18.758Z,4.10
2023-04-04T01:15:21.933Z,3.80
2023-04-04T01:18:27.271Z,4.30
2023-04-04T01:21:30.588Z,6.50
2023-04-04T01:24:34.909Z,5.10
2023-04-04T01:27:40.719Z,4.70
2023-04-04T01:30:49.916Z,5.00
2023-04-04T01:34:09.535Z,4.40
2023-04-04T01:37:30.875Z,4.70
2023-04-04T01:40:37.573Z,4.60
2023-04-04T01:43:46.178Z,4.30
2023-04-04T01:46:54.427Z,4.50
2023-04-04T01:49:57.799Z,3.80
2023-04-04T01:53:00.984Z,4.40
2023-04-04T01:56:04.908Z,4.50
2023-04-04T01:59:10.246Z,4.50
2023-04-04T02:02:13.460Z,4.40
2023-04-04T02:05:16.689Z,4.30
2023-04-04T02:08:20.253Z,4.20
2023-04-04T02:11:25.962Z,4.20
2023-04-04T02:14:29.168Z,3.80
2023-04-04T02:17:32.671Z,4.40
2023-04-04T02:20:36.032Z,3.90
2023-04-04T02:23:39.232Z,3.90
2023-04-04T02:26:42.543Z,4.20
2023-04-04T02:29:45.678Z,4.00
2023-04-04T02:32:50.347Z,4.60
2023-04-04T02:35:59.089Z,3.90
2023-04-04T02:39:02.511Z,4.40
2023-04-04T02:42:06.791Z,4.20
2023-04-04T02:45:11.529Z,3.70
2023-04-04T02:48:14.913Z,4.40
2023-04-04T02:51:21.075Z,4.70
2023-04-04T02:54:24.177Z,4.60
2023-04-04T02:57:27.675Z,5.30
2023-04-04T03:00:30.828Z,5.30
2023-04-04T03:03:34.089Z,4.80
2023-04-04T03:06:37.753Z,4.20
2023-04-04T03:09:45.129Z,4.90
2023-04-04T03:12:48.548Z,4.60
2023-04-04T03:15:59.088Z,4.30
2023-04-04T03:19:03.499Z,4.30
2023-04-04T03:22:07.102Z,4.30
2023-04-04T03:25:10.750Z,4.20
2023-04-04T03:28:13.829Z,5.00
2023-04-04T03:31:17.768Z,7.40
2023-04-04T03:34:20.956Z,5.30
2023-04-04T03:37:26.451Z,6.00
2023-04-04T03:40:29.895Z,6.70
2023-04-04T03:43:33.386Z,6.90
2023-04-04T03:46:36.675Z,5.40
2023-04-04T03:49:39.936Z,5.10
2023-04-04T03:52:43.153Z,4.80
2023-04-04T03:55:46.228Z,5.20
2023-04-04T03:58:50.096Z,4.70
2023-04-04T04:01:55.849Z,4.90
2023-04-04T04:04:59.516Z,5.00
2023-04-04T04:08:02.754Z,4.10
2023-04-04T04:11:09.066Z,4.10
2023-04-04T04:14:13.177Z,5.30
2023-04-04T04:17:17.019Z,4.50
2023-04-04T04:20:21.036Z,4.40
2023-04-04T04:23:26.341Z,5.00
2023-04-04T04:26:29.628Z,5.00
2023-04-04T04:29:33.046Z,4.60
2023-04-04T04:32:36.216Z,5.80
2023-04-04T04:35:42.660Z,8.10
2023-04-04T04:38:46.023Z,8.60
2023-04-04T04:41:51.087Z,7.90
2023-04-04T04:44:54.597Z,7.60
2023-04-04T04:47:58.628Z,6.60
2023-04-04T04:51:02.377Z,7.80
2023-04-04T04:54:14.946Z,8.80
2023-04-04T04:57:19.738Z,7.50
2023-04-04T05:00:23.478Z,7.60
2023-04-04T05:03:27.898Z,7.20
2023-04-04T05:06:31.103Z,7.40
2023-04-04T05:09:34.464Z,6.10
2023-04-04T05:12:43.653Z,7.30
2023-04-04T05:15:49.002Z,6.00
2023-04-04T05:18:52.697Z,6.20
2023-04-04T05:21:55.839Z,5.70
2023-04-04T05:25:07.380Z,5.70
2023-04-04T05:28:11.781Z,5.60
2023-04-04T05:31:15.736Z,5.60
2023-04-04T05:34:19.231Z,6.30
2023-04-04T05:37:23.591Z,6.90
2023-04-04T05:40:27.939Z,5.70
2023-04-04T05:43:39.411Z,4.50
2023-04-04T05:46:45.355Z,5.50
2023-04-04T05:49:49.143Z,3.80
2023-04-04T05:52:55.510Z,3.00
2023-04-04T05:55:58.900Z,2.60
2023-04-04T05:59:05.990Z,2.60
2023-04-04T06:02:12.302Z,2.50
2023-04-04T06:05:19.176Z,2.50
2023-04-04T06:08:22.309Z,2.30
2023-04-04T06:11:26.327Z,3.10
2023-04-04T06:17:42.577Z,2.30
2023-04-04T06:20:46.380Z,2.50
2023-04-04T06:23:51.963Z,2.20
2023-04-04T06:26:55.049Z,2.30
2023-04-04T06:30:00.790Z,2.10
2023-04-04T06:33:04.919Z,2.90
2023-04-04T06:36:08.705Z,2.50
2023-04-04T06:39:11.846Z,2.00
2023-04-04T06:42:15.033Z,2.20
2023-04-04T06:45:27.696Z,2.40
2023-04-04T06:48:30.724Z,2.60
2023-04-04T06:51:34.576Z,2.30
2023-04-04T06:54:37.911Z,3.10
2023-04-04T06:57:41.392Z,2.10
2023-04-04T07:00:44.597Z,2.50
2023-04-04T07:03:47.813Z,2.50
2023-04-04T07:06:50.940Z,2.80
2023-04-04T07:09:54.194Z,2.00
2023-04-04T07:12:57.552Z,3.10
2023-04-04T07:16:02.163Z,2.40
2023-04-04T07:19:05.578Z,2.30
2023-04-04T07:22:09.801Z,2.90
2023-04-04T07:25:14.696Z,2.30
2023-04-04T07:28:18.237Z,3.10
2023-04-04T07:31:22.190Z,3.20
2023-04-04T07:34:26.675Z,4.40
2023-04-04T07:37:29.979Z,2.90
2023-04-04T07:40:33.232Z,2.80
2023-04-04T07:43:36.252Z,3.40
2023-04-04T07:46:39.464Z,4.00
2023-04-04T07:49:42.557Z,2.40
2023-04-04T07:52:52.355Z,2.80
2023-04-04T07:55:55.608Z,2.30
2023-04-04T07:58:58.786Z,4.40
2023-04-04T08:02:01.917Z,3.30
2023-04-04T08:05:05.896Z,3.70
2023-04-04T08:08:09.104Z,2.50
2023-04-04T08:11:12.388Z,1.80
2023-04-04T08:14:15.570Z,1.90
2023-04-04T08:17:19.197Z,3.00
2023-04-04T08:20:22.364Z,2.80
2023-04-04T08:23:25.618Z,3.70
2023-04-04T08:26:29.265Z,3.30
2023-04-04T08:29:33.127Z,2.20
2023-04-04T08:32:36.633Z,2.30
2023-04-04T08:35:39.940Z,2.60
2023-04-04T08:38:42.987Z,2.20
2023-04-04T08:41:46.599Z,2.30
2023-04-04T08:44:53.463Z,1.50
2023-04-04T08:47:59.901Z,1.60
2023-04-04T08:51:04.743Z,2.30
2023-04-04T08:54:09.440Z,1.90
2023-04-04T08:57:13.647Z,2.90
2023-04-04T09:00:20.912Z,2.10
2023-04-04T09:03:29.130Z,3.40
2023-04-04T09:06:33.577Z,3.60
2023-04-04T09:09:38.890Z,2.40
2023-04-04T09:12:47.434Z,5.10
2023-04-04T09:15:54.267Z,4.60
2023-04-04T09:18:57.532Z,11.70
2023-04-04T09:22:02.098Z,8.70
2023-04-04T09:25:08.730Z,3.20
2023-04-04T09:28:16.269Z,3.60
2023-04-04T09:31:20.219Z,3.20
2023-04-04T09:34:26.282Z,3.40
2023-04-04T09:37:29.635Z,2.70
2023-04-04T09:40:39.066Z,1.90
2023-04-04T09:43:46.318Z,2.00
2023-04-04T09:46:52.247Z,4.20
2023-04-04T09:49:59.740Z,2.70
2023-04-04T09:53:02.961Z,2.50
2023-04-04T09:56:06.997Z,3.50
2023-04-04T09:59:13.757Z,2.10
2023-04-04T10:02:19.209Z,4.40
2023-04-04T10:05:23.528Z,2.10
2023-04-04T10:08:30.508Z,2.60
2023-04-04T10:11:36.207Z,3.00
2023-04-04T10:14:40.095Z,3.70
2023-04-04T10:17:45.817Z,4.70
2023-04-04T10:20:50.646Z,3.10
2023-04-04T10:23:54.550Z,2.30
2023-04-04T10:26:58.075Z,2.50
2023-04-04T10:30:01.629Z,3.50
2023-04-04T10:33:15.523Z,3.10
2023-04-04T10:36:24.646Z,3.30
2023-04-04T10:39:36.407Z,2.70
2023-04-04T10:42:43.329Z,2.80
2023-04-04T10:45:47.953Z,2.60
2023-04-04T10:48:52.244Z,2.60
2023-04-04T10:51:57.413Z,2.20
2023-04-04T10:55:06.187Z,2.60
2023-04-04T10:58:10.997Z,2.80
2023-04-04T11:01:16.433Z,2.00
2023-04-04T11:04:23.684Z,2.00
2023-04-04T11:07:34.240Z,3.10
2023-04-04T11:10:38.226Z,2.50
2023-04-04T11:13:59.889Z,2.50
2023-04-04T11:17:06.766Z,3.10
2023-04-04T11:20:11.696Z,2.10
2023-04-04T11:23:22.893Z,2.20
2023-04-04T11:26:26.414Z,3.40
2023-04-04T11:29:51.648Z,2.50
2023-04-04T11:33:06.935Z,2.60
2023-04-04T11:36:35.930Z,4.70
2023-04-04T11:39:50.776Z,3.00
2023-04-04T11:42:56.172Z,2.70
2023-04-04T11:46:08.999Z,4.70
2023-04-04T11:49:12.281Z,3.20
2023-04-04T11:52:20.371Z,3.40
2023-04-04T11:55:23.847Z,3.50
2023-04-04T11:58:27.539Z,2.90
2023-04-04T12:01:31.540Z,2.50
2023-04-04T12:04:37.312Z,6.30
2023-04-04T12:07:41.648Z,3.50
2023-04-04T12:10:45.139Z,2.30
2023-04-04T12:13:51.248Z,1.60
2023-04-04T12:16:56.799Z,4.00
2023-04-04T12:20:00.304Z,2.60
2023-04-04T12:23:03.777Z,3.80
2023-04-04T12:26:09.498Z,2.40
2023-04-04T12:29:15.378Z,2.30
2023-04-04T12:32:18.811Z,2.10
2023-04-04T12:35:22.739Z,7.80
2023-04-04T12:38:26.899Z,3.30
2023-04-04T12:41:30.685Z,3.00
2023-04-04T12:44:40.296Z,3.80
2023-04-04T12:47:54.584Z,2.90
2023-04-04T12:50:59.728Z,2.20
2023-04-04T12:54:05.306Z,2.70
2023-04-04T12:57:08.633Z,1.90
2023-04-04T13:00:14.025Z,3.40
2023-04-04T13:03:17.764Z,4.90
2023-04-04T13:06:21.749Z,2.80
2023-04-04T13:09:25.395Z,2.80
2023-04-04T13:12:58.902Z,3.30
2023-04-04T13:16:08.150Z,4.00
2023-04-04T13:19:11.725Z,5.60
2023-04-04T13:22:15.603Z,7.00
2023-04-04T13:25:18.825Z,3.10
2023-04-04T13:28:22.240Z,4.80
2023-04-04T13:31:25.579Z,4.20
2023-04-04T13:34:28.866Z,2.40
2023-04-04T13:37:32.177Z,4.30
2023-04-04T13:40:35.317Z,4.30
2023-04-04T13:43:38.513Z,2.70
2023-04-04T13:46:42.483Z,4.90
2023-04-04T13:49:45.507Z,4.70
2023-04-04T13:52:48.615Z,5.80
2023-04-04T13:56:17.103Z,5.20
2023-04-04T13:59:15.326Z,4.00
2023-04-04T14:02:18.486Z,4.20
2023-04-04T14:05:22.446Z,2.90
2023-04-04T14:08:25.696Z,3.00
2023-04-04T14:11:31.401Z,2.40
2023-04-04T14:14:35.738Z,2.50
2023-04-04T14:17:41.038Z,3.30
2023-04-04T14:20:44.395Z,3.60
2023-04-04T14:23:47.576Z,5.10
2023-04-04T14:26:50.960Z,2.70
2023-04-04T14:29:54.060Z,3.10
2023-04-04T14:32:59.106Z,3.10
2023-04-04T14:36:02.234Z,6.80
2023-04-04T14:39:05.471Z,4.30
2023-04-04T14:42:09.086Z,4.70
2023-04-04T14:45:12.569Z,7.70
2023-04-04T14:48:15.583Z,9.60
2023-04-04T14:51:19.940Z,7.00
2023-04-04T14:54:23.100Z,5.10
2023-04-04T14:57:26.423Z,4.00
2023-04-04T15:00:30.467Z,3.20
2023-04-04T15:03:35.044Z,3.70
2023-04-04T15:06:38.168Z,7.50
2023-04-04T15:09:41.351Z,3.30
2023-04-04T15:12:44.509Z,2.70
2023-04-04T15:15:47.580Z,3.80
2023-04-04T15:18:51.184Z,4.70
2023-04-04T15:21:57.077Z,7.70
2023-04-04T15:25:00.127Z,3.00
2023-04-04T15:28:03.195Z,6.40
2023-04-04T15:31:06.235Z,7.70
2023-04-04T15:34:09.884Z,8.20
2023-04-04T15:37:12.852Z,6.30
2023-04-04T15:40:16.805Z,6.80
2023-04-04T15:43:19.781Z,7.20
2023-04-04T15:46:23.054Z,6.70
2023-04-04T15:49:26.448Z,9.70
2023-04-04T15:52:29.951Z,5.40
2023-04-04T15:55:33.211Z,3.90
2023-04-04T15:58:36.255Z,6.40
2023-04-04T16:01:40.849Z,4.50
2023-04-04T16:04:43.922Z,3.70
2023-04-04T16:07:47.086Z,4.00
2023-04-04T16:10:51.107Z,5.00
2023-04-04T16:13:54.502Z,6.50
2023-04-04T16:16:59.048Z,5.00
2023-04-04T16:20:06.356Z,5.50
2023-04-04T16:23:15.111Z,4.10
2023-04-04T16:26:18.148Z,9.00
2023-04-04T16:29:23.564Z,10.50
2023-04-04T16:32:26.838Z,7.40
2023-04-04T16:35:30.240Z,6.00
2023-04-04T16:38:33.529Z,7.00
2023-04-04T16:41:43.401Z,8.80
2023-04-04T16:44:49.786Z,6.80
2023-04-04T16:47:53.671Z,4.90
2023-04-04T16:50:56.920Z,5.40
2023-04-04T16:53:59.894Z,5.10
2023-04-04T16:57:04.140Z,7.30
2023-04-04T17:00:10.727Z,8.40
2023-04-04T17:03:13.979Z,5.50
2023-04-04T17:06:17.399Z,7.20
2023-04-04T17:09:20.461Z,7.10
2023-04-04T17:12:23.460Z,12.90
2023-04-04T17:15:26.463Z,12.30
2023-04-04T17:18:29.557Z,5.20
2023-04-04T17:21:32.775Z,4.50
2023-04-04T17:24:36.123Z,5.10
2023-04-04T17:27:39.748Z,6.60
2023-04-04T17:30:43.304Z,4.90
2023-04-04T17:33:46.534Z,4.10
2023-04-04T17:36:51.348Z,4.80
2023-04-04T17:39:54.715Z,4.30
2023-04-04T17:42:57.694Z,5.20
2023-04-04T17:46:06.492Z,5.60
2023-04-04T17:49:09.870Z,5.80
2023-04-04T17:52:18.866Z,6.40
2023-04-04T17:55:22.997Z,6.00
2023-04-04T17:58:26.181Z,5.20
2023-04-04T18:01:29.608Z,5.70
2023-04-04T18:04:32.836Z,6.20
2023-04-04T18:07:35.885Z,6.90
2023-04-04T18:10:39.128Z,6.40
2023-04-04T18:13:42.390Z,6.80
2023-04-04T18:16:45.732Z,7.20
2023-04-04T18:19:48.787Z,8.30
2023-04-04T18:22:53.780Z,7.80
2023-04-04T18:25:56.808Z,7.60
2023-04-04T18:28:59.875Z,8.50
2023-04-04T18:32:03.784Z,7.20
2023-04-04T18:35:07.337Z,7.00
2023-04-04T18:38:11.223Z,7.60
2023-04-04T18:41:17.391Z,7.70
2023-04-04T18:44:21.718Z,7.20
2023-04-04T18:47:25.873Z,8.30
2023-04-04T18:50:28.920Z,9.30
2023-04-04T18:53:31.944Z,10.40
2023-04-04T18:56:37.115Z,14.30
2023-04-04T18:59:41.473Z,14.60
2023-04-04T19:02:45.085Z,18.80
2023-04-04T19:05:49.321Z,21.80
2023-04-04T19:08:56.691Z,26.10
2023-04-04T19:12:00.256Z,34.90
2023-04-04T19:15:03.800Z,36.90
2023-04-04T19:18:06.835Z,43.20
2023-04-04T19:21:11.009Z,38.20
2023-04-04T19:24:15.025Z,48.20
2023-04-04T19:27:18.075Z,49.10
2023-04-04T19:30:52.616Z,53.40
2023-04-04T19:33:56.718Z,57.00
2023-04-04T19:36:59.773Z,68.30
2023-04-04T19:40:14.777Z,82.30
2023-04-04T19:43:22.594Z,92.70
2023-04-04T19:46:29.114Z,92.40
2023-04-04T19:49:33.558Z,89.10
2023-04-04T19:52:36.721Z,92.50
2023-04-04T19:55:40.495Z,93.00
2023-04-04T19:58:44.831Z,108.10
2023-04-04T20:04:54.291Z,113.70
2023-04-04T20:07:57.402Z,120.10
2023-04-04T20:11:00.680Z,112.20
2023-04-04T20:14:09.240Z,105.20
2023-04-04T20:17:12.660Z,92.80
2023-04-04T20:20:50.445Z,78.20
2023-04-04T20:23:56.219Z,60.30
2023-04-04T20:26:59.780Z,60.50
2023-04-04T20:30:02.895Z,57.00
2023-04-04T20:33:32.298Z,55.80
2023-04-04T20:36:41.901Z,46.80
2023-04-04T20:40:14.717Z,50.50
2023-04-04T20:43:17.720Z,47.00
2023-04-04T20:46:22.465Z,51.00
2023-04-04T20:49:25.565Z,55.70
2023-04-04T20:52:28.550Z,53.10
2023-04-04T20:55:34.189Z,50.80
2023-04-04T20:58:37.209Z,49.40
2023-04-04T21:01:40.304Z,47.70
2023-04-04T21:04:45.716Z,47.80
2023-04-04T21:07:48.792Z,47.10
2023-04-04T21:10:53.938Z,48.50
2023-04-04T21:13:57.212Z,50.00
2023-04-04T21:17:00.270Z,43.70
2023-04-04T21:20:16.910Z,46.00
2023-04-04T21:23:26.189Z,42.50
2023-04-04T21:26:35.361Z,43.40
2023-04-04T21:29:38.389Z,43.40
2023-04-04T21:32:41.361Z,51.00
2023-04-04T21:35:47.682Z,56.10
2023-04-04T21:38:52.273Z,60.50
2023-04-04T21:42:05.966Z,64.40
2023-04-04T21:45:11.365Z,70.00
2023-04-04T21:48:14.424Z,63.00
2023-04-04T21:51:17.651Z,65.20
2023-04-04T21:54:20.673Z,66.10
2023-04-04T21:57:24.020Z,68.50
2023-04-04T22:00:27.707Z,60.90
2023-04-04T22:03:30.719Z,63.80
2023-04-04T22:06:33.918Z,65.20
2023-04-04T22:09:40.471Z,68.50
2023-04-04T22:12:45.872Z,76.90
2023-04-04T22:15:49.882Z,78.10
2023-04-04T22:18:52.870Z,75.90
2023-04-04T22:21:58.678Z,74.40
2023-04-04T22:25:04.601Z,71.60
2023-04-04T22:28:08.625Z,70.80
2023-04-04T22:31:11.968Z,64.70
2023-04-04T22:34:15.542Z,64.20
2023-04-04T22:37:20.272Z,63.70
2023-04-04T22:40:23.942Z,61.20
2023-04-04T22:43:26.914Z,64.60
2023-04-04T22:46:31.415Z,60.30
2023-04-04T22:49:37.806Z,60.80
2023-04-04T22:52:43.632Z,62.60
2023-04-04T22:55:46.594Z,59.80
2023-04-04T22:58:49.685Z,57.30
2023-04-04T23:01:53.001Z,57.40
2023-04-04T23:04:58.504Z,56.60
2023-04-04T23:08:03.467Z,55.90
2023-04-04T23:11:06.481Z,53.80
2023-04-04T23:14:09.850Z,55.80
2023-04-04T23:17:13.346Z,53.90
2023-04-04T23:20:18.233Z,56.00
2023-04-04T23:23:21.522Z,56.90
2023-04-04T23:26:24.577Z,55.80
2023-04-04T23:29:27.962Z,55.80
2023-04-04T23:32:32.138Z,59.70
2023-04-04T23:35:35.206Z,59.00
2023-04-04T23:38:38.180Z,55.00
2023-04-04T23:41:41.319Z,51.70
2023-04-04T23:44:44.839Z,54.00
2023-04-04T23:47:47.881Z,60.10
2023-04-04T23:50:54.439Z,59.20
2023-04-04T23:53:59.137Z,61.00
2023-04-04T23:57:02.649Z,55.20
